sensor_id;sensor_type;location;lat;lon;timestamp;P1;durP1;ratioP1;P2;durP2;ratioP2
52530;SDS011;38441;52.894;6.040;2022-09-09T00:04:25;6.43;;;3.50;;
52530;SDS011;38441;52.894;6.040;2022-09-09T00:07:14;6.10;;;3.15;;
52530;SDS011;38441;52.894;6.040;2022-09-09T00:09:45;7.18;;;3.47;;
52530;SDS011;38441;52.894;6.040;2022-09-09T00:15:07;6.43;;;3.45;;
52530;SDS011;38441;52.894;6.040;2022-09-09T00:17:43;7.82;;;3.38;;
52530;SDS011;38441;52.894;6.040;2022-09-09T00:20:32;7.50;;;3.03;;
52530;SDS011;38441;52.894;6.040;2022-09-09T00:28:45;5.28;;;3.20;;
52530;SDS011;38441;52.894;6.040;2022-09-09T00:31:39;4.72;;;3.10;;
52530;SDS011;38441;52.894;6.040;2022-09-09T00:36:50;5.80;;;3.58;;
52530;SDS011;38441;52.894;6.040;2022-09-09T00:39:27;6.90;;;3.00;;
52530;SDS011;38441;52.894;6.040;2022-09-09T00:55:25;6.75;;;3.33;;
52530;SDS011;38441;52.894;6.040;2022-09-09T00:58:14;4.80;;;2.83;;
52530;SDS011;38441;52.894;6.040;2022-09-09T01:03:13;6.28;;;3.25;;
52530;SDS011;38441;52.894;6.040;2022-09-09T01:06:11;5.95;;;3.38;;
52530;SDS011;38441;52.894;6.040;2022-09-09T01:09:10;5.38;;;3.42;;
52530;SDS011;38441;52.894;6.040;2022-09-09T01:12:01;6.18;;;3.40;;
52530;SDS011;38441;52.894;6.040;2022-09-09T01:17:09;6.90;;;3.13;;
52530;SDS011;38441;52.894;6.040;2022-09-09T01:22:13;6.43;;;3.30;;
52530;SDS011;38441;52.894;6.040;2022-09-09T01:25:10;5.90;;;3.60;;
52530;SDS011;38441;52.894;6.040;2022-09-09T01:27:57;5.38;;;3.45;;
52530;SDS011;38441;52.894;6.040;2022-09-09T01:30:25;6.63;;;4.20;;
52530;SDS011;38441;52.894;6.040;2022-09-09T01:32:53;8.32;;;3.83;;
52530;SDS011;38441;52.894;6.040;2022-09-09T01:35:32;7.55;;;3.60;;
52530;SDS011;38441;52.894;6.040;2022-09-09T01:38:04;5.68;;;3.60;;
52530;SDS011;38441;52.894;6.040;2022-09-09T01:40:30;7.03;;;3.67;;
52530;SDS011;38441;52.894;6.040;2022-09-09T01:42:56;6.28;;;3.80;;
52530;SDS011;38441;52.894;6.040;2022-09-09T01:45:23;6.20;;;3.70;;
52530;SDS011;38441;52.894;6.040;2022-09-09T01:47:49;7.15;;;3.90;;
52530;SDS011;38441;52.894;6.040;2022-09-09T01:50:17;4.72;;;3.38;;
52530;SDS011;38441;52.894;6.040;2022-09-09T01:52:43;6.78;;;3.83;;
52530;SDS011;38441;52.894;6.040;2022-09-09T01:55:11;6.65;;;3.58;;
52530;SDS011;38441;52.894;6.040;2022-09-09T01:57:39;7.25;;;3.95;;
52530;SDS011;38441;52.894;6.040;2022-09-09T02:00:08;5.72;;;3.55;;
52530;SDS011;38441;52.894;6.040;2022-09-09T02:10:40;6.10;;;4.20;;
52530;SDS011;38441;52.894;6.040;2022-09-09T02:13:15;6.90;;;4.18;;
52530;SDS011;38441;52.894;6.040;2022-09-09T02:15:45;6.93;;;4.30;;
52530;SDS011;38441;52.894;6.040;2022-09-09T02:18:30;8.10;;;4.65;;
52530;SDS011;38441;52.894;6.040;2022-09-09T02:21:00;8.52;;;4.57;;
52530;SDS011;38441;52.894;6.040;2022-09-09T02:23:28;9.25;;;4.18;;
52530;SDS011;38441;52.894;6.040;2022-09-09T02:25:54;6.32;;;3.78;;
52530;SDS011;38441;52.894;6.040;2022-09-09T02:28:22;8.02;;;4.28;;
52530;SDS011;38441;52.894;6.040;2022-09-09T02:30:51;6.57;;;3.88;;
52530;SDS011;38441;52.894;6.040;2022-09-09T02:33:19;6.03;;;4.03;;
52530;SDS011;38441;52.894;6.040;2022-09-09T02:35:49;9.80;;;4.32;;
52530;SDS011;38441;52.894;6.040;2022-09-09T02:38:17;7.38;;;4.28;;
52530;SDS011;38441;52.894;6.040;2022-09-09T02:40:43;5.80;;;3.83;;
52530;SDS011;38441;52.894;6.040;2022-09-09T02:43:10;6.25;;;4.18;;
52530;SDS011;38441;52.894;6.040;2022-09-09T02:45:38;10.45;;;4.28;;
52530;SDS011;38441;52.894;6.040;2022-09-09T02:48:11;6.03;;;4.30;;
52530;SDS011;38441;52.894;6.040;2022-09-09T02:50:54;7.25;;;4.25;;
52530;SDS011;38441;52.894;6.040;2022-09-09T02:53:54;5.75;;;4.18;;
52530;SDS011;38441;52.894;6.040;2022-09-09T03:00:59;7.57;;;4.38;;
52530;SDS011;38441;52.894;6.040;2022-09-09T03:03:27;10.07;;;5.18;;
52530;SDS011;38441;52.894;6.040;2022-09-09T03:05:54;8.05;;;4.60;;
52530;SDS011;38441;52.894;6.040;2022-09-09T03:08:19;6.85;;;4.55;;
52530;SDS011;38441;52.894;6.040;2022-09-09T03:10:45;6.03;;;3.88;;
52530;SDS011;38441;52.894;6.040;2022-09-09T03:13:11;6.93;;;4.35;;
52530;SDS011;38441;52.894;6.040;2022-09-09T03:15:40;5.15;;;3.92;;
52530;SDS011;38441;52.894;6.040;2022-09-09T03:18:06;9.60;;;4.47;;
52530;SDS011;38441;52.894;6.040;2022-09-09T03:20:32;6.22;;;4.38;;
52530;SDS011;38441;52.894;6.040;2022-09-09T03:22:59;6.15;;;3.42;;
52530;SDS011;38441;52.894;6.040;2022-09-09T03:25:25;7.43;;;4.65;;
52530;SDS011;38441;52.894;6.040;2022-09-09T03:27:52;7.07;;;4.63;;
52530;SDS011;38441;52.894;6.040;2022-09-09T03:30:20;6.60;;;4.30;;
52530;SDS011;38441;52.894;6.040;2022-09-09T03:32:47;7.78;;;3.83;;
52530;SDS011;38441;52.894;6.040;2022-09-09T03:35:13;7.88;;;4.15;;
52530;SDS011;38441;52.894;6.040;2022-09-09T03:37:40;6.45;;;3.83;;
52530;SDS011;38441;52.894;6.040;2022-09-09T03:40:06;5.45;;;3.60;;
52530;SDS011;38441;52.894;6.040;2022-09-09T03:42:34;5.80;;;3.95;;
52530;SDS011;38441;52.894;6.040;2022-09-09T03:45:02;6.30;;;3.75;;
52530;SDS011;38441;52.894;6.040;2022-09-09T03:47:29;9.38;;;3.83;;
52530;SDS011;38441;52.894;6.040;2022-09-09T03:49:55;5.20;;;3.22;;
52530;SDS011;38441;52.894;6.040;2022-09-09T03:52:21;9.63;;;3.47;;
52530;SDS011;38441;52.894;6.040;2022-09-09T03:54:49;6.95;;;3.40;;
52530;SDS011;38441;52.894;6.040;2022-09-09T03:57:16;5.65;;;3.10;;
52530;SDS011;38441;52.894;6.040;2022-09-09T03:59:42;5.97;;;3.33;;
52530;SDS011;38441;52.894;6.040;2022-09-09T04:02:08;5.78;;;3.40;;
52530;SDS011;38441;52.894;6.040;2022-09-09T04:04:34;10.48;;;3.45;;
52530;SDS011;38441;52.894;6.040;2022-09-09T04:07:01;6.25;;;3.28;;
52530;SDS011;38441;52.894;6.040;2022-09-09T04:09:27;7.57;;;3.05;;
52530;SDS011;38441;52.894;6.040;2022-09-09T04:11:52;7.13;;;3.13;;
52530;SDS011;38441;52.894;6.040;2022-09-09T04:14:18;6.30;;;3.47;;
52530;SDS011;38441;52.894;6.040;2022-09-09T04:16:44;7.68;;;3.50;;
52530;SDS011;38441;52.894;6.040;2022-09-09T04:19:11;10.35;;;4.70;;
52530;SDS011;38441;52.894;6.040;2022-09-09T04:21:39;7.47;;;4.45;;
52530;SDS011;38441;52.894;6.040;2022-09-09T04:24:06;9.55;;;5.28;;
52530;SDS011;38441;52.894;6.040;2022-09-09T04:26:34;7.97;;;5.25;;
52530;SDS011;38441;52.894;6.040;2022-09-09T04:29:00;10.88;;;5.18;;
52530;SDS011;38441;52.894;6.040;2022-09-09T04:31:26;10.20;;;5.80;;
52530;SDS011;38441;52.894;6.040;2022-09-09T04:33:52;9.27;;;5.35;;
52530;SDS011;38441;52.894;6.040;2022-09-09T04:36:18;8.88;;;5.10;;
52530;SDS011;38441;52.894;6.040;2022-09-09T04:38:45;9.18;;;5.80;;
52530;SDS011;38441;52.894;6.040;2022-09-09T04:41:11;7.78;;;5.55;;
52530;SDS011;38441;52.894;6.040;2022-09-09T04:43:37;7.05;;;5.53;;
52530;SDS011;38441;52.894;6.040;2022-09-09T04:46:03;8.23;;;5.15;;
52530;SDS011;38441;52.894;6.040;2022-09-09T04:48:30;8.48;;;5.32;;
52530;SDS011;38441;52.894;6.040;2022-09-09T04:50:57;8.73;;;5.25;;
52530;SDS011;38441;52.894;6.040;2022-09-09T04:53:27;6.95;;;4.97;;
52530;SDS011;38441;52.894;6.040;2022-09-09T04:56:00;7.60;;;5.38;;
52530;SDS011;38441;52.894;6.040;2022-09-09T04:58:30;7.32;;;5.20;;
52530;SDS011;38441;52.894;6.040;2022-09-09T05:01:07;7.38;;;5.00;;
52530;SDS011;38441;52.894;6.040;2022-09-09T05:03:37;7.97;;;4.93;;
52530;SDS011;38441;52.894;6.040;2022-09-09T05:06:06;8.02;;;5.07;;
52530;SDS011;38441;52.894;6.040;2022-09-09T05:08:34;10.68;;;5.50;;
52530;SDS011;38441;52.894;6.040;2022-09-09T05:11:01;11.18;;;6.03;;
52530;SDS011;38441;52.894;6.040;2022-09-09T05:13:27;8.10;;;5.38;;
52530;SDS011;38441;52.894;6.040;2022-09-09T05:15:54;7.95;;;5.38;;
52530;SDS011;38441;52.894;6.040;2022-09-09T05:18:20;8.13;;;5.60;;
52530;SDS011;38441;52.894;6.040;2022-09-09T05:20:47;9.23;;;5.75;;
52530;SDS011;38441;52.894;6.040;2022-09-09T05:23:13;8.27;;;5.88;;
52530;SDS011;38441;52.894;6.040;2022-09-09T05:25:39;8.80;;;5.40;;
52530;SDS011;38441;52.894;6.040;2022-09-09T05:28:06;9.13;;;5.72;;
52530;SDS011;38441;52.894;6.040;2022-09-09T05:30:33;10.43;;;5.70;;
52530;SDS011;38441;52.894;6.040;2022-09-09T05:32:59;9.35;;;5.07;;
52530;SDS011;38441;52.894;6.040;2022-09-09T05:35:25;9.75;;;5.78;;
52530;SDS011;38441;52.894;6.040;2022-09-09T05:37:51;11.02;;;5.63;;
52530;SDS011;38441;52.894;6.040;2022-09-09T05:40:17;9.23;;;6.15;;
52530;SDS011;38441;52.894;6.040;2022-09-09T05:42:43;9.02;;;5.85;;
52530;SDS011;38441;52.894;6.040;2022-09-09T05:45:09;7.57;;;5.20;;
52530;SDS011;38441;52.894;6.040;2022-09-09T05:47:35;10.88;;;5.43;;
52530;SDS011;38441;52.894;6.040;2022-09-09T05:50:03;7.15;;;5.15;;
52530;SDS011;38441;52.894;6.040;2022-09-09T05:52:29;11.32;;;5.95;;
52530;SDS011;38441;52.894;6.040;2022-09-09T05:54:55;13.90;;;6.60;;
52530;SDS011;38441;52.894;6.040;2022-09-09T05:57:22;7.05;;;5.05;;
52530;SDS011;38441;52.894;6.040;2022-09-09T05:59:48;12.13;;;5.55;;
52530;SDS011;38441;52.894;6.040;2022-09-09T06:02:14;10.27;;;6.15;;
52530;SDS011;38441;52.894;6.040;2022-09-09T06:04:41;11.20;;;5.68;;
52530;SDS011;38441;52.894;6.040;2022-09-09T06:07:07;10.75;;;6.35;;
52530;SDS011;38441;52.894;6.040;2022-09-09T06:09:33;10.13;;;5.93;;
52530;SDS011;38441;52.894;6.040;2022-09-09T06:11:59;13.07;;;5.68;;
52530;SDS011;38441;52.894;6.040;2022-09-09T06:14:25;8.35;;;5.55;;
52530;SDS011;38441;52.894;6.040;2022-09-09T06:16:52;10.40;;;5.80;;
52530;SDS011;38441;52.894;6.040;2022-09-09T06:19:18;8.18;;;5.40;;
52530;SDS011;38441;52.894;6.040;2022-09-09T06:21:45;6.70;;;4.68;;
52530;SDS011;38441;52.894;6.040;2022-09-09T06:24:12;12.15;;;5.22;;
52530;SDS011;38441;52.894;6.040;2022-09-09T06:26:42;8.38;;;5.30;;
52530;SDS011;38441;52.894;6.040;2022-09-09T06:29:08;8.98;;;5.10;;
52530;SDS011;38441;52.894;6.040;2022-09-09T06:31:35;9.98;;;5.75;;
52530;SDS011;38441;52.894;6.040;2022-09-09T06:34:02;8.27;;;4.88;;
52530;SDS011;38441;52.894;6.040;2022-09-09T06:36:34;10.98;;;6.22;;
52530;SDS011;38441;52.894;6.040;2022-09-09T06:39:02;10.05;;;6.00;;
52530;SDS011;38441;52.894;6.040;2022-09-09T06:41:29;8.25;;;5.00;;
52530;SDS011;38441;52.894;6.040;2022-09-09T06:43:56;7.68;;;5.60;;
52530;SDS011;38441;52.894;6.040;2022-09-09T06:46:27;10.15;;;5.60;;
52530;SDS011;38441;52.894;6.040;2022-09-09T06:48:55;10.00;;;5.63;;
52530;SDS011;38441;52.894;6.040;2022-09-09T06:51:24;10.95;;;5.10;;
52530;SDS011;38441;52.894;6.040;2022-09-09T06:53:55;6.60;;;5.10;;
52530;SDS011;38441;52.894;6.040;2022-09-09T06:56:27;8.35;;;5.40;;
52530;SDS011;38441;52.894;6.040;2022-09-09T06:59:01;11.82;;;5.47;;
52530;SDS011;38441;52.894;6.040;2022-09-09T07:01:36;7.78;;;5.38;;
52530;SDS011;38441;52.894;6.040;2022-09-09T07:04:03;8.50;;;5.47;;
52530;SDS011;38441;52.894;6.040;2022-09-09T07:06:33;6.43;;;5.15;;
52530;SDS011;38441;52.894;6.040;2022-09-09T07:09:02;10.05;;;6.05;;
52530;SDS011;38441;52.894;6.040;2022-09-09T07:11:34;9.48;;;5.15;;
52530;SDS011;38441;52.894;6.040;2022-09-09T07:14:03;8.23;;;5.63;;
52530;SDS011;38441;52.894;6.040;2022-09-09T07:16:29;7.10;;;5.28;;
52530;SDS011;38441;52.894;6.040;2022-09-09T07:18:56;7.22;;;5.60;;
52530;SDS011;38441;52.894;6.040;2022-09-09T07:21:26;10.02;;;5.40;;
52530;SDS011;38441;52.894;6.040;2022-09-09T07:23:52;6.70;;;5.18;;
52530;SDS011;38441;52.894;6.040;2022-09-09T07:26:19;9.10;;;5.35;;
52530;SDS011;38441;52.894;6.040;2022-09-09T07:28:47;7.38;;;4.78;;
52530;SDS011;38441;52.894;6.040;2022-09-09T07:31:14;9.18;;;5.22;;
52530;SDS011;38441;52.894;6.040;2022-09-09T07:38:43;6.90;;;4.60;;
52530;SDS011;38441;52.894;6.040;2022-09-09T07:41:11;7.13;;;5.05;;
52530;SDS011;38441;52.894;6.040;2022-09-09T07:43:52;9.70;;;5.32;;
52530;SDS011;38441;52.894;6.040;2022-09-09T07:46:22;7.38;;;4.70;;
52530;SDS011;38441;52.894;6.040;2022-09-09T07:48:53;7.38;;;4.97;;
52530;SDS011;38441;52.894;6.040;2022-09-09T07:53:54;8.35;;;4.47;;
52530;SDS011;38441;52.894;6.040;2022-09-09T07:56:23;8.25;;;4.75;;
52530;SDS011;38441;52.894;6.040;2022-09-09T07:58:50;7.53;;;4.40;;
52530;SDS011;38441;52.894;6.040;2022-09-09T08:01:18;7.53;;;4.03;;
52530;SDS011;38441;52.894;6.040;2022-09-09T08:08:52;9.50;;;3.70;;
52530;SDS011;38441;52.894;6.040;2022-09-09T08:11:19;6.47;;;3.40;;
52530;SDS011;38441;52.894;6.040;2022-09-09T08:13:45;7.65;;;3.97;;
52530;SDS011;38441;52.894;6.040;2022-09-09T08:16:15;6.30;;;3.65;;
52530;SDS011;38441;52.894;6.040;2022-09-09T08:18:42;9.70;;;3.88;;
52530;SDS011;38441;52.894;6.040;2022-09-09T08:23:39;7.60;;;3.65;;
52530;SDS011;38441;52.894;6.040;2022-09-09T08:26:16;8.45;;;3.88;;
52530;SDS011;38441;52.894;6.040;2022-09-09T08:28:47;7.88;;;3.30;;
52530;SDS011;38441;52.894;6.040;2022-09-09T08:31:15;9.73;;;3.53;;
52530;SDS011;38441;52.894;6.040;2022-09-09T08:33:42;7.72;;;3.10;;
52530;SDS011;38441;52.894;6.040;2022-09-09T08:36:11;9.65;;;3.95;;
52530;SDS011;38441;52.894;6.040;2022-09-09T08:38:40;7.05;;;3.30;;
52530;SDS011;38441;52.894;6.040;2022-09-09T08:41:10;12.90;;;3.45;;
52530;SDS011;38441;52.894;6.040;2022-09-09T08:43:45;8.02;;;3.20;;
52530;SDS011;38441;52.894;6.040;2022-09-09T08:46:15;8.15;;;3.00;;
52530;SDS011;38441;52.894;6.040;2022-09-09T08:48:56;7.22;;;3.17;;
52530;SDS011;38441;52.894;6.040;2022-09-09T08:51:41;8.55;;;2.88;;
52530;SDS011;38441;52.894;6.040;2022-09-09T08:54:07;9.20;;;2.90;;
52530;SDS011;38441;52.894;6.040;2022-09-09T08:56:35;5.80;;;2.50;;
52530;SDS011;38441;52.894;6.040;2022-09-09T08:59:01;7.32;;;2.63;;
52530;SDS011;38441;52.894;6.040;2022-09-09T09:07:17;6.22;;;2.22;;
52530;SDS011;38441;52.894;6.040;2022-09-09T09:12:55;9.70;;;2.55;;
52530;SDS011;38441;52.894;6.040;2022-09-09T09:15:40;10.18;;;2.45;;
52530;SDS011;38441;52.894;6.040;2022-09-09T09:18:07;5.80;;;2.05;;
52530;SDS011;38441;52.894;6.040;2022-09-09T09:24:18;9.90;;;1.90;;
52530;SDS011;38441;52.894;6.040;2022-09-09T09:26:23;7.45;;;2.05;;
52530;SDS011;38441;52.894;6.040;2022-09-09T09:28:54;9.90;;;2.40;;
52530;SDS011;38441;52.894;6.040;2022-09-09T09:31:22;7.70;;;2.08;;
52530;SDS011;38441;52.894;6.040;2022-09-09T09:33:52;7.60;;;2.17;;
52530;SDS011;38441;52.894;6.040;2022-09-09T09:36:33;5.68;;;2.03;;
52530;SDS011;38441;52.894;6.040;2022-09-09T09:39:03;4.55;;;1.75;;
52530;SDS011;38441;52.894;6.040;2022-09-09T09:41:31;8.80;;;1.50;;
52530;SDS011;38441;52.894;6.040;2022-09-09T09:43:59;11.52;;;2.08;;
52530;SDS011;38441;52.894;6.040;2022-09-09T09:46:26;4.28;;;1.25;;
52530;SDS011;38441;52.894;6.040;2022-09-09T09:48:56;6.70;;;1.50;;
52530;SDS011;38441;52.894;6.040;2022-09-09T09:51:26;7.20;;;1.50;;
52530;SDS011;38441;52.894;6.040;2022-09-09T09:54:01;6.15;;;1.40;;
52530;SDS011;38441;52.894;6.040;2022-09-09T09:56:34;5.70;;;1.38;;
52530;SDS011;38441;52.894;6.040;2022-09-09T09:59:00;5.18;;;1.25;;
52530;SDS011;38441;52.894;6.040;2022-09-09T10:01:27;4.13;;;1.30;;
52530;SDS011;38441;52.894;6.040;2022-09-09T10:03:58;7.55;;;1.80;;
52530;SDS011;38441;52.894;6.040;2022-09-09T10:06:34;5.20;;;1.40;;
52530;SDS011;38441;52.894;6.040;2022-09-09T10:09:03;7.88;;;1.50;;
52530;SDS011;38441;52.894;6.040;2022-09-09T10:14:26;5.40;;;1.33;;
52530;SDS011;38441;52.894;6.040;2022-09-09T10:17:07;7.15;;;1.80;;
52530;SDS011;38441;52.894;6.040;2022-09-09T10:19:35;3.90;;;1.10;;
52530;SDS011;38441;52.894;6.040;2022-09-09T10:22:04;7.75;;;1.30;;
52530;SDS011;38441;52.894;6.040;2022-09-09T10:49:20;8.57;;;1.33;;
52530;SDS011;38441;52.894;6.040;2022-09-09T10:52:17;5.05;;;0.90;;
52530;SDS011;38441;52.894;6.040;2022-09-09T10:55:23;3.40;;;1.10;;
52530;SDS011;38441;52.894;6.040;2022-09-09T10:57:51;7.30;;;1.15;;
52530;SDS011;38441;52.894;6.040;2022-09-09T11:00:20;5.30;;;1.52;;
52530;SDS011;38441;52.894;6.040;2022-09-09T11:02:49;3.35;;;0.85;;
52530;SDS011;38441;52.894;6.040;2022-09-09T11:08:21;8.20;;;1.50;;
52530;SDS011;38441;52.894;6.040;2022-09-09T11:13:23;5.85;;;1.20;;
52530;SDS011;38441;52.894;6.040;2022-09-09T11:18:42;9.48;;;2.00;;
52530;SDS011;38441;52.894;6.040;2022-09-09T11:21:13;7.25;;;1.30;;
52530;SDS011;38441;52.894;6.040;2022-09-09T11:23:49;7.10;;;1.63;;
52530;SDS011;38441;52.894;6.040;2022-09-09T11:26:48;6.47;;;1.30;;
52530;SDS011;38441;52.894;6.040;2022-09-09T11:37:17;4.90;;;1.20;;
52530;SDS011;38441;52.894;6.040;2022-09-09T11:43:10;9.98;;;1.80;;
52530;SDS011;38441;52.894;6.040;2022-09-09T11:45:39;5.35;;;1.33;;
52530;SDS011;38441;52.894;6.040;2022-09-09T11:49:27;5.10;;;1.65;;
52530;SDS011;38441;52.894;6.040;2022-09-09T11:51:07;6.07;;;1.63;;
52530;SDS011;38441;52.894;6.040;2022-09-09T11:53:36;6.15;;;1.33;;
52530;SDS011;38441;52.894;6.040;2022-09-09T11:59:25;7.45;;;1.33;;
52530;SDS011;38441;52.894;6.040;2022-09-09T12:02:16;10.65;;;1.63;;
52530;SDS011;38441;52.894;6.040;2022-09-09T12:04:59;6.60;;;1.35;;
52530;SDS011;38441;52.894;6.040;2022-09-09T12:10:29;4.07;;;1.17;;
52530;SDS011;38441;52.894;6.040;2022-09-09T12:13:07;8.27;;;1.77;;
52530;SDS011;38441;52.894;6.040;2022-09-09T12:15:34;5.13;;;1.30;;
52530;SDS011;38441;52.894;6.040;2022-09-09T12:18:00;12.77;;;1.70;;
52530;SDS011;38441;52.894;6.040;2022-09-09T12:28:22;6.35;;;1.58;;
52530;SDS011;38441;52.894;6.040;2022-09-09T12:33:42;6.30;;;1.00;;
52530;SDS011;38441;52.894;6.040;2022-09-09T12:36:21;4.25;;;1.27;;
52530;SDS011;38441;52.894;6.040;2022-09-09T12:38:57;5.55;;;1.35;;
52530;SDS011;38441;52.894;6.040;2022-09-09T12:41:35;7.60;;;1.30;;
52530;SDS011;38441;52.894;6.040;2022-09-09T12:44:05;6.47;;;1.30;;
52530;SDS011;38441;52.894;6.040;2022-09-09T12:46:41;7.43;;;1.40;;
52530;SDS011;38441;52.894;6.040;2022-09-09T12:52:41;7.10;;;1.30;;
52530;SDS011;38441;52.894;6.040;2022-09-09T12:55:03;4.97;;;1.50;;
52530;SDS011;38441;52.894;6.040;2022-09-09T12:57:35;7.30;;;1.60;;
52530;SDS011;38441;52.894;6.040;2022-09-09T13:00:07;6.72;;;1.73;;
52530;SDS011;38441;52.894;6.040;2022-09-09T13:02:48;6.60;;;1.58;;
52530;SDS011;38441;52.894;6.040;2022-09-09T13:05:26;5.00;;;0.90;;
52530;SDS011;38441;52.894;6.040;2022-09-09T13:08:00;3.83;;;0.80;;
52530;SDS011;38441;52.894;6.040;2022-09-09T13:10:38;5.28;;;0.95;;
52530;SDS011;38441;52.894;6.040;2022-09-09T13:13:26;5.70;;;1.08;;
52530;SDS011;38441;52.894;6.040;2022-09-09T13:15:58;4.75;;;1.13;;
52530;SDS011;38441;52.894;6.040;2022-09-09T13:18:29;4.68;;;0.90;;
52530;SDS011;38441;52.894;6.040;2022-09-09T13:20:58;4.72;;;1.10;;
52530;SDS011;38441;52.894;6.040;2022-09-09T13:23:28;3.97;;;0.88;;
52530;SDS011;38441;52.894;6.040;2022-09-09T13:25:56;4.47;;;0.88;;
52530;SDS011;38441;52.894;6.040;2022-09-09T13:28:28;6.35;;;1.17;;
52530;SDS011;38441;52.894;6.040;2022-09-09T13:30:58;3.13;;;0.73;;
52530;SDS011;38441;52.894;6.040;2022-09-09T13:33:31;3.97;;;0.70;;
52530;SDS011;38441;52.894;6.040;2022-09-09T13:38:27;4.05;;;0.85;;
52530;SDS011;38441;52.894;6.040;2022-09-09T13:40:55;2.78;;;0.73;;
52530;SDS011;38441;52.894;6.040;2022-09-09T13:43:24;6.47;;;0.70;;
52530;SDS011;38441;52.894;6.040;2022-09-09T13:46:02;5.20;;;0.80;;
52530;SDS011;38441;52.894;6.040;2022-09-09T13:48:29;5.55;;;1.20;;
52530;SDS011;38441;52.894;6.040;2022-09-09T13:51:03;3.35;;;1.02;;
52530;SDS011;38441;52.894;6.040;2022-09-09T13:53:30;5.63;;;1.10;;
52530;SDS011;38441;52.894;6.040;2022-09-09T13:55:56;5.30;;;1.60;;
52530;SDS011;38441;52.894;6.040;2022-09-09T13:58:23;4.00;;;1.02;;
52530;SDS011;38441;52.894;6.040;2022-09-09T14:00:50;4.22;;;1.15;;
52530;SDS011;38441;52.894;6.040;2022-09-09T14:03:17;4.38;;;1.17;;
52530;SDS011;38441;52.894;6.040;2022-09-09T14:05:44;3.13;;;0.90;;
52530;SDS011;38441;52.894;6.040;2022-09-09T14:08:13;3.88;;;0.90;;
52530;SDS011;38441;52.894;6.040;2022-09-09T14:10:45;4.80;;;0.90;;
52530;SDS011;38441;52.894;6.040;2022-09-09T14:13:11;5.38;;;1.10;;
52530;SDS011;38441;52.894;6.040;2022-09-09T14:15:37;2.55;;;0.80;;
52530;SDS011;38441;52.894;6.040;2022-09-09T14:18:03;3.78;;;1.02;;
52530;SDS011;38441;52.894;6.040;2022-09-09T14:20:29;6.63;;;1.23;;
52530;SDS011;38441;52.894;6.040;2022-09-09T14:22:54;3.92;;;1.15;;
52530;SDS011;38441;52.894;6.040;2022-09-09T14:25:35;6.95;;;1.20;;
52530;SDS011;38441;52.894;6.040;2022-09-09T14:28:01;6.60;;;0.90;;
52530;SDS011;38441;52.894;6.040;2022-09-09T14:30:27;4.82;;;1.13;;
52530;SDS011;38441;52.894;6.040;2022-09-09T14:32:52;4.78;;;1.10;;
52530;SDS011;38441;52.894;6.040;2022-09-09T14:35:18;2.78;;;0.73;;
52530;SDS011;38441;52.894;6.040;2022-09-09T14:37:44;3.40;;;0.90;;
52530;SDS011;38441;52.894;6.040;2022-09-09T14:40:09;3.47;;;1.00;;
52530;SDS011;38441;52.894;6.040;2022-09-09T14:42:36;2.45;;;0.85;;
52530;SDS011;38441;52.894;6.040;2022-09-09T14:45:02;2.22;;;0.90;;
52530;SDS011;38441;52.894;6.040;2022-09-09T14:47:28;2.83;;;0.90;;
52530;SDS011;38441;52.894;6.040;2022-09-09T14:49:55;3.10;;;0.90;;
52530;SDS011;38441;52.894;6.040;2022-09-09T14:52:20;3.67;;;0.90;;
52530;SDS011;38441;52.894;6.040;2022-09-09T14:54:46;3.95;;;0.77;;
52530;SDS011;38441;52.894;6.040;2022-09-09T14:57:11;7.03;;;0.70;;
52530;SDS011;38441;52.894;6.040;2022-09-09T14:59:37;4.55;;;0.65;;
52530;SDS011;38441;52.894;6.040;2022-09-09T15:02:09;2.65;;;0.65;;
52530;SDS011;38441;52.894;6.040;2022-09-09T15:04:34;3.92;;;0.90;;
52530;SDS011;38441;52.894;6.040;2022-09-09T15:07:00;3.60;;;1.00;;
52530;SDS011;38441;52.894;6.040;2022-09-09T15:09:26;4.72;;;1.00;;
52530;SDS011;38441;52.894;6.040;2022-09-09T15:11:54;3.13;;;0.90;;
52530;SDS011;38441;52.894;6.040;2022-09-09T15:14:20;32.35;;;4.22;;
52530;SDS011;38441;52.894;6.040;2022-09-09T15:16:46;4.07;;;1.05;;
52530;SDS011;38441;52.894;6.040;2022-09-09T15:19:12;4.63;;;1.20;;
52530;SDS011;38441;52.894;6.040;2022-09-09T15:21:37;5.22;;;1.42;;
52530;SDS011;38441;52.894;6.040;2022-09-09T15:24:04;5.32;;;1.20;;
52530;SDS011;38441;52.894;6.040;2022-09-09T15:26:32;7.30;;;1.67;;
52530;SDS011;38441;52.894;6.040;2022-09-09T15:28:57;5.85;;;1.38;;
52530;SDS011;38441;52.894;6.040;2022-09-09T15:31:27;4.28;;;1.30;;
52530;SDS011;38441;52.894;6.040;2022-09-09T15:33:56;3.92;;;1.20;;
52530;SDS011;38441;52.894;6.040;2022-09-09T15:38:57;3.25;;;1.30;;
52530;SDS011;38441;52.894;6.040;2022-09-09T15:41:24;4.00;;;1.17;;
52530;SDS011;38441;52.894;6.040;2022-09-09T15:43:52;4.13;;;1.40;;
52530;SDS011;38441;52.894;6.040;2022-09-09T15:49:10;5.57;;;1.57;;
52530;SDS011;38441;52.894;6.040;2022-09-09T15:51:41;3.70;;;1.17;;
52530;SDS011;38441;52.894;6.040;2022-09-09T15:54:09;4.57;;;1.30;;
52530;SDS011;38441;52.894;6.040;2022-09-09T15:56:37;3.83;;;1.23;;
52530;SDS011;38441;52.894;6.040;2022-09-09T15:59:03;5.28;;;1.42;;
52530;SDS011;38441;52.894;6.040;2022-09-09T16:01:29;3.92;;;1.50;;
52530;SDS011;38441;52.894;6.040;2022-09-09T16:03:56;3.30;;;1.58;;
52530;SDS011;38441;52.894;6.040;2022-09-09T16:06:23;5.15;;;1.52;;
52530;SDS011;38441;52.894;6.040;2022-09-09T16:08:50;4.47;;;1.30;;
52530;SDS011;38441;52.894;6.040;2022-09-09T16:11:28;6.40;;;1.70;;
52530;SDS011;38441;52.894;6.040;2022-09-09T16:13:56;2.92;;;1.15;;
52530;SDS011;38441;52.894;6.040;2022-09-09T16:16:24;3.70;;;1.38;;
52530;SDS011;38441;52.894;6.040;2022-09-09T16:18:55;4.07;;;1.25;;
52530;SDS011;38441;52.894;6.040;2022-09-09T16:21:23;4.05;;;1.20;;
52530;SDS011;38441;52.894;6.040;2022-09-09T16:23:56;3.50;;;1.20;;
52530;SDS011;38441;52.894;6.040;2022-09-09T16:26:26;3.60;;;1.20;;
52530;SDS011;38441;52.894;6.040;2022-09-09T16:28:53;7.18;;;1.50;;
52530;SDS011;38441;52.894;6.040;2022-09-09T16:31:20;4.68;;;1.55;;
52530;SDS011;38441;52.894;6.040;2022-09-09T16:33:47;4.10;;;1.20;;
52530;SDS011;38441;52.894;6.040;2022-09-09T16:36:18;6.43;;;1.40;;
52530;SDS011;38441;52.894;6.040;2022-09-09T16:38:56;3.55;;;1.40;;
52530;SDS011;38441;52.894;6.040;2022-09-09T16:41:24;4.40;;;1.30;;
52530;SDS011;38441;52.894;6.040;2022-09-09T16:44:03;4.22;;;1.05;;
52530;SDS011;38441;52.894;6.040;2022-09-09T16:46:31;3.45;;;1.08;;
52530;SDS011;38441;52.894;6.040;2022-09-09T16:48:59;3.83;;;1.05;;
52530;SDS011;38441;52.894;6.040;2022-09-09T16:51:27;2.65;;;1.17;;
52530;SDS011;38441;52.894;6.040;2022-09-09T16:53:58;3.47;;;1.00;;
52530;SDS011;38441;52.894;6.040;2022-09-09T16:56:26;3.85;;;1.20;;
52530;SDS011;38441;52.894;6.040;2022-09-09T16:58:54;7.22;;;1.45;;
52530;SDS011;38441;52.894;6.040;2022-09-09T17:01:21;5.88;;;1.30;;
52530;SDS011;38441;52.894;6.040;2022-09-09T17:03:51;4.07;;;1.20;;
52530;SDS011;38441;52.894;6.040;2022-09-09T17:06:26;7.18;;;1.20;;
52530;SDS011;38441;52.894;6.040;2022-09-09T17:08:57;3.00;;;1.00;;
52530;SDS011;38441;52.894;6.040;2022-09-09T17:11:24;5.57;;;1.42;;
52530;SDS011;38441;52.894;6.040;2022-09-09T17:13:52;8.35;;;1.30;;
52530;SDS011;38441;52.894;6.040;2022-09-09T17:16:19;5.05;;;1.30;;
52530;SDS011;38441;52.894;6.040;2022-09-09T17:18:46;4.15;;;1.27;;
52530;SDS011;38441;52.894;6.040;2022-09-09T17:21:14;4.00;;;0.90;;
52530;SDS011;38441;52.894;6.040;2022-09-09T17:23:42;5.03;;;1.42;;
52530;SDS011;38441;52.894;6.040;2022-09-09T17:26:09;4.85;;;1.20;;
52530;SDS011;38441;52.894;6.040;2022-09-09T17:28:36;4.68;;;1.02;;
52530;SDS011;38441;52.894;6.040;2022-09-09T17:31:04;3.08;;;1.00;;
52530;SDS011;38441;52.894;6.040;2022-09-09T17:33:35;4.55;;;1.85;;